Time;durP1;ratioP1;P1;durP2;ratioP2;P2;SDS_P1;SDS_P2;PMS_P1;PMS_P2;Temp;Humidity;BMP_temperature;BMP_pressure;BME280_temperature;BME280_humidity;BME280_pressure;Samples;Min_cycle;Max_cycle;Signal;HPM_P1;HPM_P2
2022/07/02 00:00:27;;;;;;;50.90;26.77;;;;;;;;;;5045825;28;20073;-80
2022/07/02 00:02:55;;;;;;;47.35;25.52;;;;;;;;;;5045098;28;20759;-80
2022/07/02 00:05:23;;;;;;;50.42;26.25;;;;;;;;;;5061455;28;20107;-81
2022/07/02 00:07:52;;;;;;;47.03;26.60;;;;;;;;;;5040374;28;20076;-79
2022/07/02 00:10:20;;;;;;;47.47;25.80;;;;;;;;;;5045789;28;20139;-79
2022/07/02 00:12:47;;;;;;;48.88;26.92;;;;;;;;;;5045040;28;20048;-80
2022/07/02 00:15:15;;;;;;;47.25;25.38;;;;;;;;;;5041053;28;20080;-80
2022/07/02 00:17:43;;;;;;;52.90;24.23;;;;;;;;;;5047363;28;20151;-80
2022/07/02 00:20:11;;;;;;;53.53;26.55;;;;;;;;;;5044248;28;20496;-80
2022/07/02 00:22:39;;;;;;;56.85;24.67;;;;;;;;;;5040709;28;20133;-79
2022/07/02 00:25:06;;;;;;;54.60;25.00;;;;;;;;;;5054038;28;20524;-80
2022/07/02 00:27:34;;;;;;;50.70;24.95;;;;;;;;;;5041932;28;20044;-80
2022/07/02 00:30:02;;;;;;;50.35;23.88;;;;;;;;;;5038890;28;20076;-79
2022/07/02 00:32:31;;;;;;;48.70;25.98;;;;;;;;;;5040386;28;20558;-79
2022/07/02 00:34:59;;;;;;;47.05;23.85;;;;;;;;;;5041388;28;20390;-80
2022/07/02 00:37:26;;;;;;;49.08;23.95;;;;;;;;;;5039440;28;20068;-80
2022/07/02 00:39:54;;;;;;;47.78;24.15;;;;;;;;;;5055377;28;20073;-80
2022/07/02 00:42:25;;;;;;;46.83;23.60;;;;;;;;;;5040623;28;20608;-80
2022/07/02 00:44:52;;;;;;;46.75;23.70;;;;;;;;;;5040805;28;20144;-80
2022/07/02 00:47:24;;;;;;;45.75;22.25;;;;;;;;;;5054175;28;20555;-79
2022/07/02 00:49:51;;;;;;;47.25;23.02;;;;;;;;;;5037133;28;20144;-80
2022/07/02 00:52:19;;;;;;;48.55;23.42;;;;;;;;;;5060336;28;20110;-80
2022/07/02 00:54:46;;;;;;;46.88;23.33;;;;;;;;;;5048288;28;20136;-80
2022/07/02 00:57:14;;;;;;;44.30;22.65;;;;;;;;;;5062346;28;20076;-80
2022/07/02 00:59:41;;;;;;;53.38;24.40;;;;;;;;;;5062254;28;20042;-79
2022/07/02 01:02:09;;;;;;;58.78;24.42;;;;;;;;;;5060300;28;20064;-79
2022/07/02 01:04:36;;;;;;;51.40;23.77;;;;;;;;;;5053743;28;20108;-79
2022/07/02 01:07:08;;;;;;;57.38;26.30;;;;;;;;;;5048062;28;20534;-79
2022/07/02 01:12:34;;;;;;;56.45;25.42;;;;;;;;;;5048288;28;20080;-80
2022/07/02 01:15:01;;;;;;;59.45;26.63;;;;;;;;;;5058499;28;20085;-79
2022/07/02 01:17:29;;;;;;;68.93;27.00;;;;;;;;;;5046077;28;20123;-79
2022/07/02 01:19:56;;;;;;;55.47;25.95;;;;;;;;;;5047597;28;20124;-81
2022/07/02 01:22:44;;;;;;;62.85;25.67;;;;;;;;;;5047052;28;20048;-81
2022/07/02 01:25:11;;;;;;;53.47;25.08;;;;;;;;;;5039464;28;20088;-81
2022/07/02 01:27:39;;;;;;;60.90;25.60;;;;;;;;;;5053246;28;20084;-79
2022/07/02 01:30:06;;;;;;;67.75;26.77;;;;;;;;;;5074451;22;20135;-79
2022/07/02 01:32:34;;;;;;;67.90;27.45;;;;;;;;;;5058649;28;20128;-79
2022/07/02 01:35:05;;;;;;;62.25;25.20;;;;;;;;;;5046897;28;20141;-81
2022/07/02 01:37:33;;;;;;;70.90;28.83;;;;;;;;;;5048140;28;20056;-80
2022/07/02 01:40:00;;;;;;;67.40;28.20;;;;;;;;;;5048464;28;20561;-80
2022/07/02 01:42:27;;;;;;;74.22;29.15;;;;;;;;;;5050031;28;20424;-80
2022/07/02 01:44:54;;;;;;;69.78;28.40;;;;;;;;;;5050390;28;20049;-80
2022/07/02 01:47:21;;;;;;;72.72;29.75;;;;;;;;;;5045816;28;20084;-80
2022/07/02 01:49:49;;;;;;;80.05;30.02;;;;;;;;;;5064720;28;20081;-80
2022/07/02 01:52:16;;;;;;;81.35;29.70;;;;;;;;;;5056765;28;20108;-79
2022/07/02 01:54:44;;;;;;;69.43;27.15;;;;;;;;;;5045318;28;20046;-79
2022/07/02 01:57:12;;;;;;;76.63;29.65;;;;;;;;;;5042424;28;20137;-80
2022/07/02 01:59:40;;;;;;;77.35;30.13;;;;;;;;;;5045523;28;20940;-80
2022/07/02 02:02:07;;;;;;;79.22;29.23;;;;;;;;;;5057928;28;20131;-79
2022/07/02 02:04:35;;;;;;;69.75;29.38;;;;;;;;;;5042715;28;20798;-79
2022/07/02 02:07:03;;;;;;;79.97;29.27;;;;;;;;;;5041417;28;20056;-79
2022/07/02 02:09:31;;;;;;;70.15;29.73;;;;;;;;;;5036619;28;21030;-79
2022/07/02 02:11:58;;;;;;;77.32;29.80;;;;;;;;;;5044743;28;20104;-79
2022/07/02 02:14:26;;;;;;;71.40;30.27;;;;;;;;;;5045569;28;20186;-79
2022/07/02 02:16:53;;;;;;;69.30;28.85;;;;;;;;;;5045273;28;20541;-79
2022/07/02 02:19:20;;;;;;;70.75;29.48;;;;;;;;;;5048665;28;20051;-79
2022/07/02 02:21:48;;;;;;;76.80;30.63;;;;;;;;;;5045961;28;20785;-79
2022/07/02 02:24:15;;;;;;;69.40;30.70;;;;;;;;;;5042647;28;20605;-79
2022/07/02 02:26:43;;;;;;;81.55;30.27;;;;;;;;;;5048079;28;20056;-79
2022/07/02 02:29:10;;;;;;;72.28;29.88;;;;;;;;;;5048102;28;20088;-79
2022/07/02 02:31:37;;;;;;;86.45;29.95;;;;;;;;;;5042823;28;20092;-80
2022/07/02 02:34:05;;;;;;;101.55;32.50;;;;;;;;;;5048202;28;20053;-79
2022/07/02 02:36:32;;;;;;;76.35;31.27;;;;;;;;;;5047347;28;20858;-79
2022/07/02 02:38:59;;;;;;;96.18;33.15;;;;;;;;;;5049579;28;20131;-79
2022/07/02 02:41:26;;;;;;;101.35;31.83;;;;;;;;;;5046681;28;20175;-79
2022/07/02 02:43:54;;;;;;;95.28;32.45;;;;;;;;;;5046607;28;20722;-79
2022/07/02 02:46:21;;;;;;;79.60;31.50;;;;;;;;;;5039227;28;20143;-79
2022/07/02 02:48:48;;;;;;;82.82;32.35;;;;;;;;;;5047666;28;20075;-80
2022/07/02 02:51:16;;;;;;;75.97;31.20;;;;;;;;;;5034698;28;20749;-80
2022/07/02 02:53:43;;;;;;;101.60;34.55;;;;;;;;;;5033381;28;20080;-80
2022/07/02 02:56:11;;;;;;;88.88;32.78;;;;;;;;;;5045087;28;20140;-80
2022/07/02 02:58:38;;;;;;;88.57;33.53;;;;;;;;;;5043117;28;20111;-79
2022/07/02 03:01:06;;;;;;;90.65;32.10;;;;;;;;;;5034243;28;20050;-80
2022/07/02 03:03:33;;;;;;;79.15;33.38;;;;;;;;;;5034606;28;20141;-81
2022/07/02 03:06:01;;;;;;;79.45;32.15;;;;;;;;;;5054330;28;20137;-79
2022/07/02 03:08:28;;;;;;;91.50;32.45;;;;;;;;;;5041337;28;20098;-79
2022/07/02 03:10:55;;;;;;;88.03;32.30;;;;;;;;;;5045043;28;20079;-79
2022/07/02 03:13:22;;;;;;;79.47;32.33;;;;;;;;;;5042903;28;20140;-80
2022/07/02 03:15:50;;;;;;;91.10;30.83;;;;;;;;;;5052850;28;20105;-82
2022/07/02 03:18:17;;;;;;;87.05;33.70;;;;;;;;;;5043424;28;20078;-81
2022/07/02 03:20:51;;;;;;;92.57;32.95;;;;;;;;;;5032843;28;20061;-80
2022/07/02 03:23:18;;;;;;;98.20;34.30;;;;;;;;;;5043373;28;20076;-80
2022/07/02 03:25:45;;;;;;;86.75;32.67;;;;;;;;;;5044413;28;20097;-80
2022/07/02 03:28:12;;;;;;;88.88;34.28;;;;;;;;;;5045783;28;20072;-81
2022/07/02 03:30:40;;;;;;;93.45;34.13;;;;;;;;;;5043388;28;20126;-80
2022/07/02 03:33:07;;;;;;;93.25;33.92;;;;;;;;;;5047714;28;20049;-80
2022/07/02 03:35:34;;;;;;;84.70;32.08;;;;;;;;;;5044815;28;20132;-80
2022/07/02 03:38:03;;;;;;;88.05;32.80;;;;;;;;;;5042966;28;20135;-80
2022/07/02 03:40:31;;;;;;;87.82;31.83;;;;;;;;;;5049826;28;20049;-80
2022/07/02 03:42:58;;;;;;;96.60;32.47;;;;;;;;;;5045557;28;20040;-81
2022/07/02 03:45:25;;;;;;;98.78;32.75;;;;;;;;;;5045193;28;20139;-80
2022/07/02 03:47:53;;;;;;;96.05;35.55;;;;;;;;;;5045888;28;20106;-81
2022/07/02 03:50:20;;;;;;;82.75;32.25;;;;;;;;;;5049476;28;20077;-81
2022/07/02 03:52:47;;;;;;;93.43;32.65;;;;;;;;;;5040471;28;20141;-80
2022/07/02 03:55:21;;;;;;;89.28;32.88;;;;;;;;;;5041094;28;20053;-80
2022/07/02 03:57:48;;;;;;;96.47;32.50;;;;;;;;;;5044889;28;20559;-80
2022/07/02 04:00:16;;;;;;;92.65;33.63;;;;;;;;;;5049292;28;20686;-80
2022/07/02 04:02:43;;;;;;;92.85;33.40;;;;;;;;;;5040765;28;20132;-80
2022/07/02 04:05:10;;;;;;;85.88;32.03;;;;;;;;;;5037108;28;20106;-82
2022/07/02 04:07:37;;;;;;;78.10;32.78;;;;;;;;;;5045305;28;20080;-82
2022/07/02 04:10:05;;;;;;;81.80;30.58;;;;;;;;;;5042211;28;20144;-81
2022/07/02 04:12:33;;;;;;;94.93;31.38;;;;;;;;;;5042247;28;20045;-82
2022/07/02 04:15:00;;;;;;;85.47;29.95;;;;;;;;;;5039593;28;20049;-82
2022/07/02 04:17:27;;;;;;;70.55;31.08;;;;;;;;;;5043348;28;20048;-83
2022/07/02 04:19:55;;;;;;;68.93;29.77;;;;;;;;;;5059229;28;20044;-82
2022/07/02 04:22:23;;;;;;;78.85;29.90;;;;;;;;;;5036727;28;20127;-83
2022/07/02 04:24:50;;;;;;;72.95;29.88;;;;;;;;;;5059819;28;20098;-83
2022/07/02 04:27:18;;;;;;;70.22;28.63;;;;;;;;;;5041125;28;20160;-81
2022/07/02 04:29:45;;;;;;;72.60;31.23;;;;;;;;;;5045311;28;20048;-87
2022/07/02 04:32:12;;;;;;;65.75;28.83;;;;;;;;;;5040230;28;20126;-86
2022/07/02 04:34:40;;;;;;;78.90;30.88;;;;;;;;;;5036547;28;20127;-87
2022/07/02 04:37:08;;;;;;;76.20;29.67;;;;;;;;;;5041278;28;20080;-82
2022/07/02 04:39:35;;;;;;;83.03;31.58;;;;;;;;;;5053972;28;20136;-86
2022/07/02 04:42:02;;;;;;;73.32;30.70;;;;;;;;;;5047036;28;20080;-87
2022/07/02 04:44:30;;;;;;;72.55;31.70;;;;;;;;;;5052107;28;20132;-86
2022/07/02 04:46:57;;;;;;;69.10;31.13;;;;;;;;;;5036626;28;20104;-86
2022/07/02 04:49:25;;;;;;;65.30;29.65;;;;;;;;;;5042815;28;20121;-87
2022/07/02 04:51:52;;;;;;;66.45;29.75;;;;;;;;;;5043603;28;20131;-87
2022/07/02 04:54:20;;;;;;;62.28;29.40;;;;;;;;;;5042348;28;20426;-87
2022/07/02 04:56:48;;;;;;;71.30;29.65;;;;;;;;;;5044191;28;20653;-87
2022/07/02 04:59:16;;;;;;;70.68;30.20;;;;;;;;;;5039933;28;20136;-84
2022/07/02 05:01:43;;;;;;;74.20;30.90;;;;;;;;;;5033854;28;20045;-84
2022/07/02 05:04:11;;;;;;;66.03;29.08;;;;;;;;;;5043971;28;20071;-84
2022/07/02 05:06:38;;;;;;;64.50;29.52;;;;;;;;;;5036955;28;20049;-87
2022/07/02 05:09:05;;;;;;;71.72;29.02;;;;;;;;;;5052213;28;20056;-87
2022/07/02 05:11:33;;;;;;;66.03;29.40;;;;;;;;;;5053295;28;20136;-88
2022/07/02 05:14:00;;;;;;;59.40;29.40;;;;;;;;;;5043983;28;20088;-88
2022/07/02 05:16:28;;;;;;;56.25;27.85;;;;;;;;;;5035229;28;20087;-87
2022/07/02 05:18:55;;;;;;;57.42;28.38;;;;;;;;;;5032808;28;20087;-87
2022/07/02 05:21:23;;;;;;;54.75;27.73;;;;;;;;;;5042417;28;20128;-87
2022/07/02 05:23:50;;;;;;;57.45;28.90;;;;;;;;;;5041546;28;20095;-88
2022/07/02 05:26:19;;;;;;;60.08;28.58;;;;;;;;;;5045717;28;20049;-88
2022/07/02 05:28:46;;;;;;;61.03;28.60;;;;;;;;;;5057956;28;21232;-86
2022/07/02 05:31:14;;;;;;;58.40;27.48;;;;;;;;;;5034953;28;20131;-84
2022/07/02 05:33:41;;;;;;;58.20;26.70;;;;;;;;;;5033975;28;20077;-80
2022/07/02 05:36:08;;;;;;;69.90;30.08;;;;;;;;;;5035631;28;20135;-79
2022/07/02 05:38:36;;;;;;;62.42;27.80;;;;;;;;;;5037503;28;20891;-83
2022/07/02 05:41:03;;;;;;;64.80;29.27;;;;;;;;;;5034799;28;20076;-79
2022/07/02 05:43:30;;;;;;;58.47;26.40;;;;;;;;;;5037451;28;20069;-82
2022/07/02 05:45:58;;;;;;;55.38;27.40;;;;;;;;;;5038475;28;20513;-82
2022/07/02 05:48:25;;;;;;;52.63;27.42;;;;;;;;;;5055007;28;20136;-77
2022/07/02 05:50:52;;;;;;;55.35;26.65;;;;;;;;;;5035524;28;20049;-80
2022/07/02 05:53:19;;;;;;;52.58;26.23;;;;;;;;;;5038201;28;20642;-79
2022/07/02 05:55:47;;;;;;;56.40;25.77;;;;;;;;;;5042550;28;20603;-79
2022/07/02 05:58:14;;;;;;;49.67;24.63;;;;;;;;;;5040174;28;20143;-79
2022/07/02 06:00:41;;;;;;;51.75;24.40;;;;;;;;;;5040161;28;20132;-82
2022/07/02 06:03:09;;;;;;;53.03;24.13;;;;;;;;;;5034103;28;20076;-76
2022/07/02 06:08:22;;;;;;;40.25;21.45;;;;;;;;;;5041643;28;20136;-81
2022/07/02 06:10:50;;;;;;;42.72;22.02;;;;;;;;;;5043187;28;20143;-80
2022/07/02 06:13:17;;;;;;;39.78;21.17;;;;;;;;;;5043341;28;20492;-84
2022/07/02 06:15:44;;;;;;;46.50;21.45;;;;;;;;;;5035871;28;20152;-86
2022/07/02 06:18:12;;;;;;;35.22;18.35;;;;;;;;;;5039265;28;20095;-84
2022/07/02 06:20:40;;;;;;;34.45;18.35;;;;;;;;;;5053103;28;20041;-85
2022/07/02 06:23:07;;;;;;;27.80;17.02;;;;;;;;;;5049978;28;20140;-91
2022/07/02 06:25:34;;;;;;;26.70;16.08;;;;;;;;;;5047326;28;20050;-86
2022/07/02 06:28:05;;;;;;;24.73;15.32;;;;;;;;;;5048802;28;20076;-89
2022/07/02 06:30:32;;;;;;;23.35;13.25;;;;;;;;;;5051223;28;20049;-89
2022/07/02 06:33:00;;;;;;;32.63;13.30;;;;;;;;;;5049277;28;20485;-88
2022/07/02 06:35:30;;;;;;;20.50;11.10;;;;;;;;;;5044558;28;20045;-95
2022/07/02 06:37:57;;;;;;;17.60;10.10;;;;;;;;;;5041703;28;20044;-82
2022/07/02 06:40:25;;;;;;;20.35;10.65;;;;;;;;;;5039901;28;20076;-82
2022/07/02 06:42:52;;;;;;;19.77;10.45;;;;;;;;;;5032356;28;20855;-82
2022/07/02 06:45:20;;;;;;;16.83;10.32;;;;;;;;;;5032613;28;20135;-81
2022/07/02 06:47:47;;;;;;;17.38;8.82;;;;;;;;;;5038190;28;21438;-82
2022/07/02 06:50:18;;;;;;;13.60;7.75;;;;;;;;;;5034812;28;20080;-82
2022/07/02 06:52:46;;;;;;;13.07;7.05;;;;;;;;;;5049294;28;20611;-82
2022/07/02 06:55:13;;;;;;;13.60;6.43;;;;;;;;;;5045016;28;20120;-81
2022/07/02 06:57:41;;;;;;;20.52;6.28;;;;;;;;;;5045395;28;20071;-82
2022/07/02 07:00:08;;;;;;;13.07;5.68;;;;;;;;;;5046798;28;20072;-81
2022/07/02 07:02:35;;;;;;;13.02;6.25;;;;;;;;;;5036839;28;20072;-82
2022/07/02 07:05:03;;;;;;;12.23;4.65;;;;;;;;;;5051730;28;20041;-82
2022/07/02 07:07:31;;;;;;;20.50;5.72;;;;;;;;;;5052060;28;20569;-82
2022/07/02 07:09:59;;;;;;;7.57;3.67;;;;;;;;;;5052157;28;20469;-81
2022/07/02 07:12:26;;;;;;;6.82;3.28;;;;;;;;;;5047147;28;20156;-81
2022/07/02 07:14:56;;;;;;;18.20;4.40;;;;;;;;;;5052778;28;20131;-82
2022/07/02 07:17:23;;;;;;;6.72;3.38;;;;;;;;;;5052365;28;20458;-81
2022/07/02 07:19:50;;;;;;;8.27;3.30;;;;;;;;;;5059079;28;20146;-83
2022/07/02 07:22:18;;;;;;;12.75;3.25;;;;;;;;;;5030914;28;20112;-83
2022/07/02 07:24:45;;;;;;;6.28;2.33;;;;;;;;;;5036133;28;20052;-83
2022/07/02 07:27:14;;;;;;;12.77;2.90;;;;;;;;;;5036526;28;20062;-83
2022/07/02 07:29:42;;;;;;;6.90;2.75;;;;;;;;;;5037152;28;20507;-82
2022/07/02 07:32:09;;;;;;;6.18;2.65;;;;;;;;;;5054980;28;20136;-82
2022/07/02 07:34:40;;;;;;;9.57;2.33;;;;;;;;;;5029476;28;20505;-82
2022/07/02 07:37:08;;;;;;;4.55;1.83;;;;;;;;;;5050498;28;20049;-85
2022/07/02 07:39:36;;;;;;;4.53;1.88;;;;;;;;;;5042342;28;20071;-82
2022/07/02 07:42:03;;;;;;;12.05;2.10;;;;;;;;;;5043601;28;20049;-83
2022/07/02 07:44:32;;;;;;;10.50;2.10;;;;;;;;;;5044901;28;20461;-83
2022/07/02 07:46:59;;;;;;;7.28;1.75;;;;;;;;;;5042867;28;20128;-83
2022/07/02 07:49:27;;;;;;;9.23;1.83;;;;;;;;;;5058613;28;20136;-83
2022/07/02 07:51:54;;;;;;;11.57;1.88;;;;;;;;;;5050144;28;20130;-82
2022/07/02 07:54:21;;;;;;;10.07;1.92;;;;;;;;;;5041986;28;20049;-83
2022/07/02 07:56:48;;;;;;;7.80;2.00;;;;;;;;;;5046826;28;20473;-83
2022/07/02 07:59:16;;;;;;;6.28;1.67;;;;;;;;;;5049269;28;20049;-83
2022/07/02 08:01:43;;;;;;;16.20;1.70;;;;;;;;;;5050598;28;20084;-83
2022/07/02 08:04:11;;;;;;;5.38;1.70;;;;;;;;;;5046241;28;20057;-83
2022/07/02 08:06:38;;;;;;;6.68;1.60;;;;;;;;;;5040076;28;20053;-83
2022/07/02 08:09:05;;;;;;;7.43;2.20;;;;;;;;;;5066707;28;20057;-83
2022/07/02 08:11:33;;;;;;;8.48;1.83;;;;;;;;;;5044377;28;20049;-83
2022/07/02 08:14:00;;;;;;;8.02;1.73;;;;;;;;;;5042024;28;20565;-83
2022/07/02 08:16:27;;;;;;;10.13;1.63;;;;;;;;;;5039366;28;20132;-83
2022/07/02 08:18:55;;;;;;;4.80;1.58;;;;;;;;;;5047725;28;20060;-83
2022/07/02 08:21:22;;;;;;;9.43;2.13;;;;;;;;;;5045103;28;20052;-83
2022/07/02 08:23:50;;;;;;;5.05;1.60;;;;;;;;;;5045510;28;20144;-83
2022/07/02 08:26:17;;;;;;;5.22;1.45;;;;;;;;;;5038101;28;20068;-83
2022/07/02 08:28:44;;;;;;;6.22;1.58;;;;;;;;;;5046059;28;20075;-84
2022/07/02 08:31:12;;;;;;;8.43;2.08;;;;;;;;;;5051965;28;20081;-84
2022/07/02 08:33:40;;;;;;;5.32;1.80;;;;;;;;;;5044695;28;20530;-83
2022/07/02 08:36:07;;;;;;;8.50;2.00;;;;;;;;;;5041652;28;20185;-83
2022/07/02 08:38:34;;;;;;;4.28;1.50;;;;;;;;;;5042736;28;20115;-83
2022/07/02 08:41:02;;;;;;;5.13;1.90;;;;;;;;;;5043368;28;20131;-83
2022/07/02 08:43:31;;;;;;;5.60;1.73;;;;;;;;;;5050510;28;20056;-84
2022/07/02 08:46:02;;;;;;;7.22;1.90;;;;;;;;;;5044840;28;20485;-84
2022/07/02 08:48:33;;;;;;;5.82;1.70;;;;;;;;;;5049038;28;20063;-84
2022/07/02 08:51:01;;;;;;;2.72;1.60;;;;;;;;;;5048362;28;20095;-85
2022/07/02 08:53:29;;;;;;;7.35;1.58;;;;;;;;;;5038941;28;20556;-84
2022/07/02 08:55:56;;;;;;;10.98;1.90;;;;;;;;;;5045786;28;20161;-83
2022/07/02 08:58:24;;;;;;;13.15;1.65;;;;;;;;;;5046478;28;20120;-83
2022/07/02 09:00:51;;;;;;;8.88;1.75;;;;;;;;;;5057560;28;20122;-84
2022/07/02 09:03:21;;;;;;;5.90;1.80;;;;;;;;;;5047705;28;20199;-84
2022/07/02 09:05:50;;;;;;;7.65;1.80;;;;;;;;;;5059756;28;20392;-84
2022/07/02 09:08:18;;;;;;;4.55;1.38;;;;;;;;;;5041646;28;20149;-84
2022/07/02 09:10:46;;;;;;;4.85;1.30;;;;;;;;;;5045903;28;20636;-85
2022/07/02 09:13:14;;;;;;;9.70;2.28;;;;;;;;;;5040780;28;20144;-84
2022/07/02 09:15:41;;;;;;;2.92;1.40;;;;;;;;;;5056807;28;20558;-84
2022/07/02 09:18:09;;;;;;;5.38;1.45;;;;;;;;;;5053349;28;20094;-83
2022/07/02 09:20:36;;;;;;;6.38;1.85;;;;;;;;;;5045685;28;20073;-84
2022/07/02 09:23:09;;;;;;;11.70;1.73;;;;;;;;;;5042690;28;20116;-84
2022/07/02 09:25:36;;;;;;;4.03;1.67;;;;;;;;;;5047423;28;20130;-84
2022/07/02 09:28:05;;;;;;;5.95;1.77;;;;;;;;;;5051246;28;20044;-84
2022/07/02 09:30:36;;;;;;;3.33;1.50;;;;;;;;;;5044506;28;20057;-84
2022/07/02 09:33:35;;;;;;;4.70;1.50;;;;;;;;;;5053217;28;20810;-84
2022/07/02 09:36:13;;;;;;;8.68;2.40;;;;;;;;;;5042126;28;20416;-84
2022/07/02 09:38:44;;;;;;;2.63;1.48;;;;;;;;;;5048419;28;20127;-84
2022/07/02 09:41:13;;;;;;;6.85;2.05;;;;;;;;;;5042750;28;20723;-85
2022/07/02 09:43:40;;;;;;;5.28;2.10;;;;;;;;;;5036687;28;20149;-85
2022/07/02 09:46:18;;;;;;;6.53;1.48;;;;;;;;;;5048327;28;20076;-84
2022/07/02 09:48:47;;;;;;;7.15;1.75;;;;;;;;;;5051626;28;20083;-84
2022/07/02 09:51:15;;;;;;;6.80;1.75;;;;;;;;;;5047615;28;20099;-84
2022/07/02 09:53:49;;;;;;;16.85;1.90;;;;;;;;;;5060900;28;20628;-85
2022/07/02 09:56:16;;;;;;;4.57;1.23;;;;;;;;;;5039456;28;20594;-83
2022/07/02 09:58:44;;;;;;;3.03;1.35;;;;;;;;;;5045841;28;20094;-83
2022/07/02 10:01:11;;;;;;;11.23;1.42;;;;;;;;;;5048282;28;20087;-84
2022/07/02 10:03:49;;;;;;;8.82;1.52;;;;;;;;;;5053280;28;20049;-83
2022/07/02 10:06:17;;;;;;;3.28;1.08;;;;;;;;;;5053818;28;20061;-82
2022/07/02 10:08:51;;;;;;;;;;;;;;;;;;5052711;28;20052;-83
2022/07/02 10:11:19;;;;;;;6.75;1.60;;;;;;;;;;5057548;28;20007;-83
2022/07/02 10:13:47;;;;;;;2.72;1.10;;;;;;;;;;5048687;28;20534;-83
2022/07/02 10:16:17;;;;;;;5.85;1.40;;;;;;;;;;5052820;28;20107;-83
2022/07/02 10:18:45;;;;;;;2.90;1.20;;;;;;;;;;5049551;28;20128;-83
2022/07/02 10:21:13;;;;;;;4.60;1.55;;;;;;;;;;5054700;28;20135;-83
2022/07/02 10:23:43;;;;;;;4.05;1.17;;;;;;;;;;5048965;28;20132;-84
2022/07/02 10:26:10;;;;;;;5.70;1.33;;;;;;;;;;5055466;28;20158;-84
2022/07/02 10:28:38;;;;;;;9.88;1.60;;;;;;;;;;5039956;28;20147;-84
2022/07/02 10:31:06;;;;;;;2.13;1.23;;;;;;;;;;5041715;28;20474;-84
2022/07/02 10:33:56;;;;;;;4.43;1.38;;;;;;;;;;5057884;28;20058;-83
2022/07/02 10:36:24;;;;;;;6.55;2.03;;;;;;;;;;5049638;28;20049;-84
2022/07/02 10:39:00;;;;;;;5.93;2.75;;;;;;;;;;5047107;28;20130;-83
2022/07/02 10:41:29;;;;;;;7.68;1.38;;;;;;;;;;5045501;28;20037;-82
2022/07/02 10:43:57;;;;;;;7.10;2.33;;;;;;;;;;5056686;28;20611;-82
2022/07/02 10:46:34;;;;;;;12.70;1.90;;;;;;;;;;5054614;28;21055;-81
2022/07/02 10:49:01;;;;;;;2.78;1.10;;;;;;;;;;5039721;28;21195;-82
2022/07/02 10:51:29;;;;;;;2.47;1.17;;;;;;;;;;5041110;28;20049;-81
2022/07/02 10:53:59;;;;;;;7.85;1.30;;;;;;;;;;5058976;28;20049;-81
2022/07/02 10:56:27;;;;;;;5.38;1.52;;;;;;;;;;5034770;28;20135;-82
2022/07/02 10:58:54;;;;;;;3.90;1.30;;;;;;;;;;5042224;28;20052;-82
2022/07/02 11:01:23;;;;;;;2.47;1.00;;;;;;;;;;5039656;28;20060;-81
2022/07/02 11:04:00;;;;;;;3.97;1.13;;;;;;;;;;5044008;28;20045;-81
2022/07/02 11:06:32;;;;;;;5.40;1.10;;;;;;;;;;5038418;28;20049;-81
2022/07/02 11:09:07;;;;;;;2.70;1.10;;;;;;;;;;5039723;28;20049;-82
2022/07/02 11:11:35;;;;;;;2.63;1.02;;;;;;;;;;5041337;28;20127;-83
2022/07/02 11:14:03;;;;;;;5.82;1.20;;;;;;;;;;5038607;28;20049;-84
2022/07/02 11:16:42;;;;;;;4.68;1.67;;;;;;;;;;5035476;28;20064;-85
2022/07/02 11:19:13;;;;;;;3.30;1.05;;;;;;;;;;5033927;28;20052;-82
2022/07/02 11:21:41;;;;;;;4.60;1.48;;;;;;;;;;5034581;28;20077;-86
2022/07/02 11:24:10;;;;;;;6.93;1.50;;;;;;;;;;5051054;28;20436;-83
2022/07/02 11:26:41;;;;;;;3.28;1.13;;;;;;;;;;5030165;28;20118;-85
2022/07/02 11:29:10;;;;;;;2.53;1.10;;;;;;;;;;5030652;28;20412;-86
2022/07/02 11:31:38;;;;;;;5.93;1.02;;;;;;;;;;5041666;28;20144;-87
2022/07/02 11:34:06;;;;;;;2.97;1.20;;;;;;;;;;5042125;28;20049;-85
2022/07/02 11:36:36;;;;;;;4.90;1.10;;;;;;;;;;5050073;28;20048;-86
2022/07/02 11:39:14;;;;;;;2.90;1.13;;;;;;;;;;5045862;28;20136;-84
2022/07/02 11:41:42;;;;;;;3.92;1.10;;;;;;;;;;5047552;28;21914;-84
2022/07/02 11:44:14;;;;;;;4.82;1.10;;;;;;;;;;5027414;28;20077;-83
2022/07/02 11:46:42;;;;;;;3.90;0.70;;;;;;;;;;5043155;28;20107;-84
2022/07/02 11:49:19;;;;;;;7.65;1.10;;;;;;;;;;5024598;28;20072;-82
2022/07/02 11:51:50;;;;;;;5.65;1.48;;;;;;;;;;5024480;28;20504;-85
2022/07/02 11:54:17;;;;;;;3.78;1.13;;;;;;;;;;5034243;28;20719;-83
2022/07/02 11:56:45;;;;;;;27.27;3.50;;;;;;;;;;5034612;28;20041;-84
2022/07/02 11:59:17;;;;;;;11.43;2.53;;;;;;;;;;5041845;28;20056;-85
2022/07/02 12:01:45;;;;;;;16.35;3.05;;;;;;;;;;5040189;28;20056;-83
2022/07/02 12:04:14;;;;;;;15.32;2.10;;;;;;;;;;5035122;28;20060;-80
2022/07/02 12:06:42;;;;;;;3.78;1.02;;;;;;;;;;5042913;28;20048;-80
2022/07/02 12:09:11;;;;;;;6.40;1.02;;;;;;;;;;5057622;28;20119;-82
2022/07/02 12:11:39;;;;;;;4.78;1.20;;;;;;;;;;5033215;28;20145;-86
2022/07/02 12:14:09;;;;;;;8.48;1.10;;;;;;;;;;5038388;28;20534;-86
2022/07/02 12:16:36;;;;;;;4.45;1.00;;;;;;;;;;5044388;28;20076;-83
2022/07/02 12:19:05;;;;;;;5.25;1.20;;;;;;;;;;5040046;28;20044;-84
2022/07/02 12:21:35;;;;;;;3.17;1.08;;;;;;;;;;5042599;28;20132;-81
2022/07/02 12:24:02;;;;;;;4.38;1.30;;;;;;;;;;5042540;28;20045;-81
2022/07/02 12:26:30;;;;;;;3.30;1.00;;;;;;;;;;5052022;28;20057;-84
2022/07/02 12:32:04;;;;;;;7.63;1.75;;;;;;;;;;5042918;28;20131;-83
2022/07/02 12:34:44;;;;;;;1.75;0.98;;;;;;;;;;5043381;28;20134;-82
2022/07/02 12:37:21;;;;;;;4.10;1.08;;;;;;;;;;5056667;28;20048;-84
2022/07/02 12:39:49;;;;;;;2.13;1.00;;;;;;;;;;5043721;28;20052;-86
2022/07/02 12:42:21;;;;;;;4.03;1.20;;;;;;;;;;5047439;28;20044;-88
2022/07/02 12:44:52;;;;;;;2.15;1.10;;;;;;;;;;5037560;28;20053;-86
2022/07/02 12:47:23;;;;;;;4.88;1.20;;;;;;;;;;5041286;28;20048;-85
2022/07/02 12:50:00;;;;;;;3.10;1.20;;;;;;;;;;5039897;28;20164;-84
2022/07/02 12:52:30;;;;;;;3.83;1.10;;;;;;;;;;5040780;28;21005;-84
2022/07/02 12:54:58;;;;;;;5.13;1.10;;;;;;;;;;5043644;28;20136;-83
2022/07/02 12:57:26;;;;;;;2.80;1.20;;;;;;;;;;5038461;28;20392;-84
2022/07/02 12:59:54;;;;;;;1.35;1.13;;;;;;;;;;5041380;28;20078;-83
2022/07/02 13:02:27;;;;;;;9.68;4.05;;;;;;;;;;5035173;28;20537;-83
2022/07/02 13:04:56;;;;;;;2.80;1.10;;;;;;;;;;5033821;28;20160;-85
2022/07/02 13:07:23;;;;;;;3.80;0.93;;;;;;;;;;5030618;28;20140;-85
2022/07/02 13:09:51;;;;;;;7.05;1.48;;;;;;;;;;5040570;28;20110;-84
2022/07/02 13:12:18;;;;;;;1.60;1.02;;;;;;;;;;5039856;28;20080;-84
2022/07/02 13:14:46;;;;;;;8.10;1.75;;;;;;;;;;5051744;28;20073;-84
2022/07/02 13:17:14;;;;;;;3.10;1.35;;;;;;;;;;5042660;28;20114;-85
2022/07/02 13:20:01;;;;;;;4.90;1.00;;;;;;;;;;5040671;28;21956;-84
2022/07/02 13:22:28;;;;;;;6.85;1.20;;;;;;;;;;5054871;28;20075;-85
2022/07/02 13:24:56;;;;;;;1.65;1.00;;;;;;;;;;5045227;28;20041;-84
2022/07/02 13:27:24;;;;;;;3.67;1.40;;;;;;;;;;5043935;28;20132;-86
2022/07/02 13:29:51;;;;;;;4.03;1.13;;;;;;;;;;5044396;28;20122;-87
2022/07/02 13:32:19;;;;;;;3.33;1.25;;;;;;;;;;5047392;28;20156;-87
2022/07/02 13:34:46;;;;;;;2.95;1.00;;;;;;;;;;5048544;28;20568;-86
2022/07/02 13:37:13;;;;;;;2.53;0.90;;;;;;;;;;5050395;28;20502;-89
2022/07/02 13:39:44;;;;;;;2.03;1.00;;;;;;;;;;5051816;28;20107;-84
2022/07/02 13:42:11;;;;;;;3.47;0.93;;;;;;;;;;5049240;28;20072;-83
2022/07/02 13:44:38;;;;;;;3.63;1.35;;;;;;;;;;5047812;28;20112;-84
2022/07/02 13:47:07;;;;;;;3.38;1.00;;;;;;;;;;5046451;28;20053;-84
2022/07/02 13:49:34;;;;;;;1.40;0.75;;;;;;;;;;5039438;28;20045;-84
2022/07/02 13:52:02;;;;;;;8.77;2.00;;;;;;;;;;5058414;28;20036;-84
2022/07/02 13:54:29;;;;;;;6.20;1.40;;;;;;;;;;5053477;28;20084;-84
2022/07/02 13:56:56;;;;;;;2.97;1.00;;;;;;;;;;5044738;28;20083;-84
2022/07/02 13:59:24;;;;;;;4.70;0.90;;;;;;;;;;5058981;28;20058;-84
2022/07/02 14:01:51;;;;;;;3.60;0.98;;;;;;;;;;5052986;28;20052;-84
2022/07/02 14:04:18;;;;;;;2.70;0.90;;;;;;;;;;5052926;28;20114;-83
2022/07/02 14:06:46;;;;;;;3.85;0.90;;;;;;;;;;5042140;28;20712;-83
2022/07/02 14:09:13;;;;;;;2.58;0.98;;;;;;;;;;5049456;28;20140;-83
2022/07/02 14:11:40;;;;;;;3.13;1.10;;;;;;;;;;5044667;28;20136;-83
2022/07/02 14:14:08;;;;;;;4.47;1.05;;;;;;;;;;5048784;28;20080;-83
2022/07/02 14:16:38;;;;;;;2.53;1.10;;;;;;;;;;5039357;28;20085;-84
2022/07/02 14:19:06;;;;;;;8.38;1.13;;;;;;;;;;5052474;28;20045;-82
2022/07/02 14:21:33;;;;;;;6.35;0.95;;;;;;;;;;5045432;28;20131;-83
2022/07/02 14:24:00;;;;;;;5.70;1.05;;;;;;;;;;5048103;28;20133;-84
2022/07/02 14:26:28;;;;;;;4.03;0.95;;;;;;;;;;5050329;28;20128;-83
2022/07/02 14:28:55;;;;;;;1.17;0.93;;;;;;;;;;5045927;28;20133;-83
2022/07/02 14:31:22;;;;;;;4.80;0.70;;;;;;;;;;5047348;28;20084;-83
2022/07/02 14:33:50;;;;;;;3.17;0.80;;;;;;;;;;5048825;28;20142;-83
2022/07/02 14:36:18;;;;;;;6.75;1.00;;;;;;;;;;5047241;28;20519;-82
2022/07/02 14:38:45;;;;;;;8.20;0.82;;;;;;;;;;5047706;28;20763;-82
2022/07/02 14:41:30;;;;;;;3.00;1.20;;;;;;;;;;5055852;28;20175;-83
2022/07/02 14:43:58;;;;;;;3.17;0.82;;;;;;;;;;5054404;28;20083;-83
2022/07/02 14:46:31;;;;;;;1.65;0.82;;;;;;;;;;5050978;28;20428;-83